createdAt,value
2022-09-02T00:01:25.412Z,9.20
2022-09-02T00:03:55.885Z,8.82
2022-09-02T00:06:22.542Z,8.55
2022-09-02T00:08:49.446Z,8.15
2022-09-02T00:11:20.013Z,8.77
2022-09-02T00:13:47.224Z,9.90
2022-09-02T00:16:14.446Z,9.13
2022-09-02T00:18:44.865Z,9.38
2022-09-02T00:21:14.227Z,8.85
2022-09-02T00:23:41.998Z,9.13
2022-09-02T00:26:09.187Z,8.73
2022-09-02T00:28:35.869Z,8.90
2022-09-02T00:31:02.735Z,8.27
2022-09-02T00:33:29.635Z,9.00
2022-09-02T00:35:59.177Z,8.63
2022-09-02T00:38:25.647Z,9.10
2022-09-02T00:40:52.167Z,9.10
2022-09-02T00:43:37.563Z,8.85
2022-09-02T00:46:04.177Z,8.75
2022-09-02T00:48:31.485Z,8.75
2022-09-02T00:50:58.064Z,9.25
2022-09-02T00:53:26.180Z,8.27
2022-09-02T00:55:52.747Z,8.70
2022-09-02T00:58:22.484Z,8.40
2022-09-02T01:00:56.557Z,9.48
2022-09-02T01:03:26.970Z,8.15
2022-09-02T01:05:55.866Z,8.20
2022-09-02T01:08:45.770Z,8.98
2022-09-02T01:11:12.826Z,8.20
2022-09-02T01:13:42.984Z,8.35
2022-09-02T01:16:15.403Z,7.95
2022-09-02T01:18:47.082Z,7.95
2022-09-02T01:21:14.678Z,8.27
2022-09-02T01:23:41.301Z,9.15
2022-09-02T01:26:09.235Z,8.57
2022-09-02T01:28:35.795Z,7.95
2022-09-02T01:31:02.408Z,8.27
2022-09-02T01:33:29.421Z,8.00
2022-09-02T01:35:58.513Z,8.50
2022-09-02T01:38:25.523Z,8.65
2022-09-02T01:40:52.657Z,8.68
2022-09-02T01:43:23.323Z,8.00
2022-09-02T01:45:54.234Z,7.97
2022-09-02T01:48:21.702Z,7.68
2022-09-02T01:50:56.247Z,7.88
2022-09-02T01:53:23.269Z,8.07
2022-09-02T01:55:49.860Z,8.75
2022-09-02T01:58:16.551Z,8.05
2022-09-02T02:00:43.283Z,9.57
2022-09-02T02:03:09.802Z,8.18
2022-09-02T02:05:36.820Z,8.65
2022-09-02T02:08:03.854Z,9.35
2022-09-02T02:10:30.653Z,8.85
2022-09-02T02:12:57.033Z,9.73
2022-09-02T02:17:49.285Z,11.10
2022-09-02T02:20:18.008Z,11.30
2022-09-02T02:22:44.916Z,10.07
2022-09-02T02:25:12.213Z,10.20
2022-09-02T02:27:39.119Z,10.95
2022-09-02T02:30:12.375Z,11.73
2022-09-02T02:32:39.116Z,12.52
2022-09-02T02:35:06.574Z,10.18
2022-09-02T02:37:33.045Z,11.18
2022-09-02T02:39:59.463Z,10.52
2022-09-02T02:42:26.104Z,11.98
2022-09-02T02:44:52.532Z,11.75
2022-09-02T02:47:19.218Z,11.68
2022-09-02T02:49:45.823Z,10.85
2022-09-02T02:52:12.915Z,11.65
2022-09-02T02:54:40.604Z,12.05
2022-09-02T02:57:08.714Z,11.30
2022-09-02T02:59:36.915Z,10.77
2022-09-02T03:02:05.285Z,11.88
2022-09-02T03:04:32.148Z,10.73
2022-09-02T03:06:58.545Z,12.60
2022-09-02T03:09:25.542Z,11.30
2022-09-02T03:11:51.995Z,11.10
2022-09-02T03:14:18.939Z,11.35
2022-09-02T03:16:45.365Z,11.27
2022-09-02T03:19:14.125Z,11.13
2022-09-02T03:21:42.312Z,10.60
2022-09-02T03:24:10.385Z,10.65
2022-09-02T03:26:37.007Z,11.88
2022-09-02T03:29:04.619Z,12.00
2022-09-02T03:31:31.130Z,12.27
2022-09-02T03:33:57.776Z,11.35
2022-09-02T03:36:38.577Z,11.70
2022-09-02T03:39:10.046Z,13.07
2022-09-02T03:41:37.112Z,11.50
2022-09-02T03:44:03.819Z,10.52
2022-09-02T03:46:30.340Z,12.63
2022-09-02T03:48:56.837Z,10.70
2022-09-02T03:51:24.105Z,11.95
2022-09-02T03:53:50.828Z,11.23
2022-09-02T03:56:18.041Z,11.82
2022-09-02T03:58:46.194Z,13.35
2022-09-02T04:01:15.634Z,12.82
2022-09-02T04:03:42.796Z,10.82
2022-09-02T04:06:11.914Z,11.75
2022-09-02T04:08:44.897Z,11.75
2022-09-02T04:11:17.783Z,12.68
2022-09-02T04:13:46.658Z,12.05
2022-09-02T04:16:16.918Z,12.50
2022-09-02T04:18:43.622Z,12.07
2022-09-02T04:21:25.863Z,11.10
2022-09-02T04:23:52.702Z,12.48
2022-09-02T04:26:20.714Z,11.77
2022-09-02T04:28:49.453Z,11.80
2022-09-02T04:31:19.142Z,12.18
2022-09-02T04:33:46.362Z,11.57
2022-09-02T04:36:16.072Z,11.23
2022-09-02T04:38:43.164Z,13.77
2022-09-02T04:41:16.344Z,13.57
2022-09-02T04:43:42.932Z,13.55
2022-09-02T04:46:12.469Z,13.50
2022-09-02T04:48:39.630Z,15.43
2022-09-02T04:51:09.122Z,17.40
2022-09-02T04:53:36.075Z,20.20
2022-09-02T04:56:07.959Z,19.48
2022-09-02T04:58:35.580Z,23.10
2022-09-02T05:01:26.933Z,24.35
2022-09-02T05:03:54.238Z,21.35
2022-09-02T05:09:14.291Z,20.70
2022-09-02T05:11:40.860Z,23.60
2022-09-02T05:14:07.951Z,20.45
2022-09-02T05:16:38.170Z,27.20
2022-09-02T05:19:11.383Z,24.27
2022-09-02T05:21:50.694Z,29.85
2022-09-02T05:24:17.910Z,33.58
2022-09-02T05:26:44.789Z,37.88
2022-09-02T05:29:13.024Z,39.20
2022-09-02T05:31:41.720Z,29.45
2022-09-02T05:34:08.482Z,36.10
2022-09-02T05:36:35.191Z,39.80
2022-09-02T05:39:02.260Z,36.25
2022-09-02T05:41:34.269Z,35.28
2022-09-02T05:44:03.599Z,28.35
2022-09-02T05:46:32.066Z,28.83
2022-09-02T05:49:07.674Z,27.20
2022-09-02T05:51:59.181Z,27.95
2022-09-02T05:54:30.054Z,24.45
2022-09-02T05:57:01.579Z,16.38
2022-09-02T05:59:38.275Z,15.65
2022-09-02T06:02:07.997Z,13.80
2022-09-02T06:04:44.644Z,16.10
2022-09-02T06:07:14.149Z,14.82
2022-09-02T06:09:41.184Z,16.15
2022-09-02T06:12:11.495Z,14.55
2022-09-02T06:14:38.171Z,20.50
2022-09-02T06:17:05.561Z,16.73
2022-09-02T06:19:33.682Z,16.08
2022-09-02T06:22:07.430Z,12.35
2022-09-02T06:24:39.777Z,15.30
2022-09-02T06:27:07.375Z,15.55
2022-09-02T06:29:33.984Z,14.73
2022-09-02T06:32:00.597Z,12.32
2022-09-02T06:34:29.390Z,15.27
2022-09-02T06:36:59.043Z,11.23
2022-09-02T06:39:26.035Z,11.30
2022-09-02T06:41:54.527Z,9.80
2022-09-02T06:44:21.857Z,9.95
2022-09-02T06:46:57.162Z,12.50
2022-09-02T06:49:25.311Z,10.27
2022-09-02T06:51:56.433Z,7.55
2022-09-02T06:54:23.938Z,8.40
2022-09-02T06:56:52.209Z,8.52
2022-09-02T06:59:23.421Z,7.88
2022-09-02T07:01:53.474Z,12.27
2022-09-02T07:04:42.652Z,10.38
2022-09-02T07:07:09.334Z,8.48
2022-09-02T07:09:36.060Z,10.68
2022-09-02T07:12:06.091Z,14.05
2022-09-02T07:14:47.208Z,9.55
2022-09-02T07:17:21.999Z,10.10
2022-09-02T07:19:49.590Z,10.52
2022-09-02T07:22:18.044Z,10.35
2022-09-02T07:24:45.781Z,10.07
2022-09-02T07:30:49.655Z,11.45
2022-09-02T07:33:17.583Z,12.05
2022-09-02T07:35:46.010Z,12.80
2022-09-02T07:38:12.940Z,11.02
2022-09-02T07:40:44.308Z,10.30
2022-09-02T07:43:11.609Z,12.13
2022-09-02T07:45:38.799Z,20.55
2022-09-02T07:48:12.012Z,12.23
2022-09-02T07:50:41.306Z,12.05
2022-09-02T07:53:08.544Z,11.65
2022-09-02T07:55:36.733Z,11.02
2022-09-02T07:58:09.088Z,9.35
2022-09-02T08:00:39.243Z,9.50
2022-09-02T08:03:05.989Z,12.20
2022-09-02T08:05:35.653Z,11.68
2022-09-02T08:08:03.162Z,20.27
2022-09-02T08:10:30.921Z,10.77
2022-09-02T08:13:00.828Z,11.00
2022-09-02T08:15:28.979Z,9.63
2022-09-02T08:17:57.291Z,10.25
2022-09-02T08:20:24.209Z,9.38
2022-09-02T08:22:59.309Z,10.60
2022-09-02T08:25:37.534Z,9.50
2022-09-02T08:28:04.705Z,10.77
2022-09-02T08:30:31.504Z,14.25
2022-09-02T08:32:58.016Z,9.43
2022-09-02T08:35:24.603Z,9.98
2022-09-02T08:37:54.075Z,8.73
2022-09-02T08:40:23.600Z,11.02
2022-09-02T08:42:55.660Z,13.70
2022-09-02T08:45:44.753Z,9.25
2022-09-02T08:48:27.806Z,11.00
2022-09-02T08:51:03.164Z,11.88
2022-09-02T08:53:36.638Z,11.18
2022-09-02T08:56:08.780Z,12.67
2022-09-02T08:59:08.152Z,16.73
2022-09-02T09:02:01.060Z,15.57
2022-09-02T09:05:06.978Z,12.32
2022-09-02T09:07:46.949Z,11.70
2022-09-02T09:10:22.840Z,14.63
2022-09-02T09:13:41.537Z,14.68
2022-09-02T09:16:21.479Z,11.82
2022-09-02T09:19:15.231Z,12.23
2022-09-02T09:21:46.152Z,10.05
2022-09-02T09:24:48.573Z,12.43
2022-09-02T09:27:21.007Z,10.98
2022-09-02T09:29:49.447Z,9.18
2022-09-02T09:32:29.064Z,8.18
2022-09-02T09:35:07.749Z,7.18
2022-09-02T09:37:48.381Z,9.80
2022-09-02T09:40:21.184Z,11.93
2022-09-02T09:43:56.112Z,14.02
2022-09-02T09:46:17.776Z,8.85
2022-09-02T09:48:49.922Z,8.23
2022-09-02T09:51:16.497Z,8.73
2022-09-02T09:53:44.028Z,10.30
2022-09-02T09:56:13.496Z,7.82
2022-09-02T09:58:39.922Z,11.02
2022-09-02T10:01:22.844Z,10.45
2022-09-02T10:04:32.373Z,11.38
2022-09-02T10:06:55.744Z,11.55
2022-09-02T10:09:32.851Z,12.90
2022-09-02T10:12:12.714Z,20.13
2022-09-02T10:14:44.238Z,14.43
2022-09-02T10:17:33.771Z,14.80
2022-09-02T10:20:07.422Z,15.35
2022-09-02T10:23:16.405Z,10.80
2022-09-02T10:25:52.023Z,9.02
2022-09-02T10:28:29.623Z,7.15
2022-09-02T10:31:11.427Z,6.55
2022-09-02T10:34:25.002Z,7.47
2022-09-02T10:37:03.689Z,8.98
2022-09-02T10:39:55.942Z,6.70
2022-09-02T10:42:30.102Z,6.85
2022-09-02T10:45:09.715Z,8.02
2022-09-02T10:47:38.798Z,5.53
2022-09-02T10:50:17.970Z,5.60
2022-09-02T10:53:20.842Z,5.90
2022-09-02T10:55:59.582Z,7.13
2022-09-02T10:58:55.269Z,7.18
2022-09-02T11:01:28.224Z,7.45
2022-09-02T11:03:57.719Z,9.10
2022-09-02T11:06:58.624Z,9.15
2022-09-02T11:09:39.837Z,10.18
2022-09-02T11:12:09.393Z,7.82
2022-09-02T11:14:58.484Z,7.00
2022-09-02T11:17:44.956Z,7.30
2022-09-02T11:20:34.424Z,7.75
2022-09-02T11:23:26.905Z,7.30
2022-09-02T11:26:09.554Z,8.00
2022-09-02T11:28:42.391Z,10.20
2022-09-02T11:32:06.171Z,7.75
2022-09-02T11:34:40.359Z,7.85
2022-09-02T11:37:10.773Z,10.52
2022-09-02T11:40:06.659Z,11.50
2022-09-02T11:42:52.681Z,15.80
2022-09-02T11:45:24.904Z,18.40
2022-09-02T11:48:20.488Z,18.90
2022-09-02T11:51:02.418Z,19.35
2022-09-02T11:53:30.959Z,18.60
2022-09-02T11:56:03.222Z,16.75
2022-09-02T11:58:39.240Z,14.02
2022-09-02T12:01:25.030Z,13.40
2022-09-02T12:07:09.920Z,12.75
2022-09-02T12:09:50.430Z,12.45
2022-09-02T12:12:36.293Z,9.82
2022-09-02T12:15:03.797Z,10.40
2022-09-02T12:17:53.890Z,8.30
2022-09-02T12:20:39.420Z,8.77
2022-09-02T12:23:08.151Z,9.88
2022-09-02T12:25:49.192Z,10.82
2022-09-02T12:28:27.672Z,7.93
2022-09-02T12:31:08.601Z,7.90
2022-09-02T12:33:37.792Z,8.77
2022-09-02T12:36:06.724Z,8.75
2022-09-02T12:38:40.954Z,8.25
2022-09-02T12:41:15.226Z,7.78
2022-09-02T12:43:53.709Z,9.68
2022-09-02T12:46:54.677Z,7.75
2022-09-02T12:49:38.636Z,8.23
2022-09-02T12:52:09.052Z,9.02
2022-09-02T12:54:38.460Z,8.90
2022-09-02T12:57:06.657Z,8.35
2022-09-02T12:59:35.734Z,8.68
2022-09-02T13:02:14.492Z,7.65
2022-09-02T13:04:59.640Z,8.57
2022-09-02T13:08:02.453Z,7.97
2022-09-02T13:11:19.778Z,8.43
2022-09-02T13:14:13.696Z,8.15
2022-09-02T13:17:36.362Z,8.57
2022-09-02T13:20:22.724Z,8.13
2022-09-02T13:22:52.085Z,7.95
2022-09-02T13:25:46.185Z,7.35
2022-09-02T13:28:51.938Z,7.63
2022-09-02T13:31:27.567Z,8.57
2022-09-02T13:34:05.408Z,8.88
2022-09-02T13:36:37.580Z,8.43
2022-09-02T13:39:30.750Z,8.00
2022-09-02T13:41:57.428Z,8.82
2022-09-02T13:44:29.447Z,9.52
2022-09-02T13:47:04.841Z,9.20
2022-09-02T13:49:40.723Z,8.55
2022-09-02T13:52:17.007Z,9.15
2022-09-02T13:54:46.804Z,9.55
2022-09-02T13:57:25.974Z,9.65
2022-09-02T13:59:56.026Z,10.30
2022-09-02T14:02:32.232Z,9.93
2022-09-02T14:05:04.714Z,10.48
2022-09-02T14:07:37.673Z,10.65
2022-09-02T14:10:08.759Z,10.43
2022-09-02T14:12:37.750Z,10.13
2022-09-02T14:15:12.667Z,10.65
2022-09-02T14:17:39.094Z,10.45
2022-09-02T14:20:22.467Z,9.77
2022-09-02T14:22:57.574Z,10.45
2022-09-02T14:25:27.545Z,10.43
2022-09-02T14:28:00.609Z,8.75
2022-09-02T14:30:37.593Z,11.63
2022-09-02T14:33:22.268Z,10.30
2022-09-02T14:36:07.261Z,11.05
2022-09-02T14:38:44.817Z,11.05
2022-09-02T14:41:12.361Z,9.98
2022-09-02T14:43:45.976Z,10.07
2022-09-02T14:46:31.506Z,8.65
2022-09-02T14:49:04.422Z,9.35
2022-09-02T14:51:46.332Z,9.02
2022-09-02T14:54:32.822Z,10.55
2022-09-02T14:56:59.349Z,9.75
2022-09-02T14:59:25.844Z,8.50
2022-09-02T15:01:54.611Z,9.30
2022-09-02T15:04:21.126Z,9.98
2022-09-02T15:06:48.353Z,9.77
2022-09-02T15:09:16.491Z,10.10
2022-09-02T15:11:48.070Z,10.82
2022-09-02T15:14:14.578Z,11.68
2022-09-02T15:16:41.144Z,10.57
2022-09-02T15:19:07.673Z,9.52
2022-09-02T15:21:34.134Z,10.10
2022-09-02T15:24:00.594Z,16.67
2022-09-02T15:26:27.102Z,9.15
2022-09-02T15:28:56.051Z,9.15
2022-09-02T15:31:22.723Z,9.13
2022-09-02T15:33:51.559Z,9.38
2022-09-02T15:36:18.907Z,10.23
2022-09-02T15:38:45.416Z,10.02
2022-09-02T15:41:17.735Z,10.43
2022-09-02T15:43:45.978Z,8.52
2022-09-02T15:46:27.764Z,9.23
2022-09-02T15:49:00.218Z,8.93
2022-09-02T15:51:28.712Z,9.73
2022-09-02T15:54:03.920Z,8.63
2022-09-02T15:56:32.093Z,9.10
2022-09-02T15:59:00.998Z,9.40
2022-09-02T16:01:30.042Z,9.70
2022-09-02T16:03:57.819Z,10.60
2022-09-02T16:06:25.074Z,9.63
2022-09-02T16:08:51.892Z,9.23
2022-09-02T16:11:18.984Z,9.40
2022-09-02T16:13:45.506Z,9.65
2022-09-02T16:16:16.233Z,9.88
2022-09-02T16:18:44.314Z,9.55
2022-09-02T16:21:12.627Z,9.93
2022-09-02T16:23:39.480Z,9.88
2022-09-02T16:26:32.310Z,10.30
2022-09-02T16:29:01.342Z,9.15
2022-09-02T16:31:30.344Z,9.80
2022-09-02T16:34:01.945Z,11.45
2022-09-02T16:36:33.077Z,10.20
2022-09-02T16:39:00.989Z,10.70
2022-09-02T16:41:36.446Z,10.77
2022-09-02T16:44:05.593Z,10.50
2022-09-02T16:46:33.633Z,9.70
2022-09-02T16:49:00.221Z,9.93
2022-09-02T16:51:27.721Z,9.60
2022-09-02T16:54:00.261Z,9.48
2022-09-02T16:56:27.713Z,10.55
2022-09-02T16:58:54.706Z,9.85
2022-09-02T17:01:23.152Z,9.82
2022-09-02T17:03:50.679Z,9.77
2022-09-02T17:06:17.782Z,10.13
2022-09-02T17:08:44.331Z,9.68
2022-09-02T17:11:28.998Z,9.23
2022-09-02T17:14:01.574Z,9.68
2022-09-02T17:16:31.382Z,9.82
2022-09-02T17:18:58.285Z,9.18
2022-09-02T17:21:29.947Z,9.82
2022-09-02T17:23:56.578Z,9.48
2022-09-02T17:26:27.939Z,9.65
2022-09-02T17:28:57.510Z,10.15
2022-09-02T17:31:30.392Z,10.32
2022-09-02T17:33:59.548Z,10.73
2022-09-02T17:36:28.747Z,11.82
2022-09-02T17:38:57.077Z,12.25
2022-09-02T17:41:43.763Z,11.82
2022-09-02T17:44:11.542Z,12.73
2022-09-02T17:46:38.228Z,13.25
2022-09-02T17:49:18.783Z,13.40
2022-09-02T17:51:46.571Z,13.30
2022-09-02T17:54:14.598Z,13.85
2022-09-02T17:56:56.309Z,14.05
2022-09-02T18:00:02.426Z,14.00
2022-09-02T18:02:48.570Z,13.60
2022-09-02T18:05:36.789Z,13.07
2022-09-02T18:08:15.310Z,13.88
2022-09-02T18:10:58.295Z,13.18
2022-09-02T18:13:34.055Z,14.32
2022-09-02T18:16:23.279Z,13.93
2022-09-02T18:19:23.204Z,14.60
2022-09-02T18:21:58.746Z,14.38
2022-09-02T18:24:55.198Z,15.02
2022-09-02T18:27:58.240Z,15.00
2022-09-02T18:30:29.309Z,14.85
2022-09-02T18:33:17.501Z,16.27
2022-09-02T18:36:10.220Z,17.73
2022-09-02T18:38:40.869Z,18.67
2022-09-02T18:41:22.930Z,20.05
2022-09-02T18:44:10.105Z,18.63
2022-09-02T18:46:52.802Z,25.20
2022-09-02T18:49:22.693Z,22.63
2022-09-02T18:51:54.747Z,20.80
2022-09-02T18:54:25.185Z,22.33
2022-09-02T18:56:57.388Z,21.15
2022-09-02T18:59:49.426Z,21.67
2022-09-02T19:02:23.724Z,20.35
2022-09-02T19:04:50.512Z,20.77
2022-09-02T19:07:38.791Z,18.17
2022-09-02T19:10:06.222Z,18.35
2022-09-02T19:12:35.969Z,17.58
2022-09-02T19:15:06.327Z,17.02
2022-09-02T19:17:32.725Z,16.77
2022-09-02T19:19:59.122Z,15.57
2022-09-02T19:22:28.199Z,14.88
2022-09-02T19:25:07.495Z,14.10
2022-09-02T19:27:37.501Z,12.73
2022-09-02T19:30:07.977Z,11.85
2022-09-02T19:32:36.624Z,11.65
2022-09-02T19:35:09.923Z,11.32
2022-09-02T19:37:44.616Z,11.10
2022-09-02T19:40:12.329Z,9.93
2022-09-02T19:42:38.845Z,10.90
2022-09-02T19:45:05.666Z,8.73
2022-09-02T19:50:20.619Z,8.00
2022-09-02T19:52:49.657Z,7.75
2022-09-02T19:55:18.231Z,7.38
2022-09-02T19:57:45.882Z,7.55
2022-09-02T20:00:13.559Z,7.70
2022-09-02T20:02:40.773Z,7.15
2022-09-02T20:05:11.458Z,6.28
2022-09-02T20:07:38.638Z,7.18
2022-09-02T20:10:07.122Z,6.80
2022-09-02T20:12:35.835Z,8.68
2022-09-02T20:15:04.894Z,6.88
2022-09-02T20:17:31.757Z,7.40
2022-09-02T20:20:02.625Z,7.72
2022-09-02T20:22:31.059Z,7.20
2022-09-02T20:24:58.329Z,7.38
2022-09-02T20:27:40.067Z,7.82
2022-09-02T20:30:16.167Z,8.00
2022-09-02T20:33:14.121Z,8.27
2022-09-02T20:35:46.555Z,8.98
2022-09-02T20:38:25.114Z,8.85
2022-09-02T20:41:02.346Z,8.63
2022-09-02T20:44:07.308Z,8.35
2022-09-02T20:46:59.056Z,8.00
2022-09-02T20:49:43.636Z,7.75
2022-09-02T20:52:14.824Z,7.28
2022-09-02T20:54:51.777Z,8.02
2022-09-02T20:57:39.667Z,7.25
2022-09-02T21:00:08.270Z,6.95
2022-09-02T21:02:42.503Z,9.38
2022-09-02T21:05:22.506Z,6.47
2022-09-02T21:07:58.007Z,6.75
2022-09-02T21:10:34.346Z,7.25
2022-09-02T21:13:10.830Z,8.00
2022-09-02T21:15:47.773Z,7.72
2022-09-02T21:18:32.913Z,7.28
2022-09-02T21:21:04.646Z,7.70
2022-09-02T21:23:41.281Z,8.55
2022-09-02T21:26:23.380Z,8.88
2022-09-02T21:28:58.706Z,7.80
2022-09-02T21:31:37.400Z,9.55
2022-09-02T21:34:38.908Z,9.90
2022-09-02T21:37:09.397Z,9.23
2022-09-02T21:39:41.619Z,9.68
2022-09-02T21:42:13.927Z,10.18
2022-09-02T21:44:59.154Z,9.43
2022-09-02T21:47:40.109Z,9.63
2022-09-02T21:50:47.736Z,11.43
2022-09-02T21:53:29.435Z,11.48
2022-09-02T21:56:24.244Z,12.02
2022-09-02T21:59:05.007Z,11.77
2022-09-02T22:01:44.981Z,12.32
2022-09-02T22:04:20.598Z,11.07
2022-09-02T22:06:52.122Z,11.80
2022-09-02T22:09:27.692Z,10.48
2022-09-02T22:12:01.898Z,10.55
2022-09-02T22:14:40.629Z,10.63
2022-09-02T22:17:51.296Z,9.43
2022-09-02T22:20:22.041Z,8.02
2022-09-02T22:22:54.600Z,8.88
2022-09-02T22:25:22.555Z,8.30
2022-09-02T22:28:10.477Z,9.93
2022-09-02T22:30:41.259Z,10.20
2022-09-02T22:33:12.004Z,10.35
2022-09-02T22:35:54.227Z,10.25
2022-09-02T22:38:30.756Z,9.85
2022-09-02T22:41:20.160Z,11.32
2022-09-02T22:43:53.939Z,11.32
2022-09-02T22:46:45.975Z,9.68
2022-09-02T22:49:34.781Z,11.23
2022-09-02T22:52:44.019Z,9.68
2022-09-02T22:55:18.052Z,10.68
2022-09-02T22:58:08.598Z,11.98
2022-09-02T23:00:46.775Z,10.85
2022-09-02T23:03:34.086Z,11.25
2022-09-02T23:06:17.329Z,10.02
2022-09-02T23:08:44.386Z,9.23
2022-09-02T23:11:28.152Z,10.68
2022-09-02T23:14:06.947Z,11.47
2022-09-02T23:17:18.266Z,10.57
2022-09-02T23:20:19.776Z,10.10
2022-09-02T23:22:49.035Z,12.50
2022-09-02T23:25:19.045Z,10.32
2022-09-02T23:28:47.351Z,11.70
2022-09-02T23:31:30.610Z,13.05
2022-09-02T23:34:13.660Z,12.35
2022-09-02T23:36:55.075Z,12.43
2022-09-02T23:40:12.428Z,13.93
2022-09-02T23:45:48.944Z,15.57
2022-09-02T23:48:28.889Z,11.40
2022-09-02T23:51:12.996Z,10.05
2022-09-02T23:53:44.536Z,10.57
2022-09-02T23:56:49.387Z,9.48
2022-09-02T23:59:53.306Z,9.77
